Time;durP1;ratioP1;P1;durP2;ratioP2;P2;SDS_P1;SDS_P2;PMS_P1;PMS_P2;Temp;Humidity;BMP_temperature;BMP_pressure;BME280_temperature;BME280_humidity;BME280_pressure;Samples;Min_cycle;Max_cycle;Signal;HPM_P1;HPM_P2
2023/05/26 00:01:02;;;;;;;;;15.50;15.50;;;;;15.54;61.40;101624.94;5035582;28;45319;-68
2023/05/26 00:03:27;;;;;;;;;13.00;13.00;;;;;15.47;61.28;101632.34;5035308;28;50027;-70
2023/05/26 00:05:54;;;;;;;;;11.50;11.25;;;;;15.40;61.19;101620.28;5032959;28;63999;-67
2023/05/26 00:08:21;;;;;;;;;17.25;17.25;;;;;15.39;61.33;101621.22;5035978;28;45356;-69
2023/05/26 00:10:46;;;;;;;;;14.75;14.75;;;;;15.40;61.50;101619.41;5036134;28;45596;-68
2023/05/26 00:13:12;;;;;;;;;13.25;13.25;;;;;15.39;62.16;101625.63;5035048;28;45491;-69
2023/05/26 00:15:37;;;;;;;;;15.25;14.25;;;;;15.29;62.04;101623.38;5035486;28;45258;-64
2023/05/26 00:18:02;;;;;;;;;16.00;16.00;;;;;15.29;61.91;101619.84;5035731;28;45303;-66
2023/05/26 00:20:29;;;;;;;;;19.75;19.75;;;;;15.27;62.05;101627.91;5035911;28;45295;-67
2023/05/26 00:22:54;;;;;;;;;15.75;15.75;;;;;15.23;62.49;101613.06;5034083;28;48242;-69
2023/05/26 00:25:20;;;;;;;;;13.75;13.75;;;;;15.15;62.21;101612.53;5035353;28;45304;-66
2023/05/26 00:27:45;;;;;;;;;16.25;16.25;;;;;15.10;61.79;101609.22;5033963;28;45407;-67
2023/05/26 00:30:11;;;;;;;;;16.75;16.75;;;;;15.03;62.59;101620.06;5035515;28;45550;-70
2023/05/26 00:32:36;;;;;;;;;17.50;17.50;;;;;14.99;62.83;101615.84;5035321;28;46642;-67
2023/05/26 00:35:02;;;;;;;;;18.00;18.00;;;;;14.97;63.40;101620.34;5035512;28;45932;-69
2023/05/26 00:37:27;;;;;;;;;15.75;15.75;;;;;14.88;63.46;101612.78;5035398;28;45387;-69
2023/05/26 00:39:53;;;;;;;;;14.75;14.75;;;;;14.88;63.99;101618.91;5035623;28;45597;-69
2023/05/26 00:42:18;;;;;;;;;18.25;18.25;;;;;14.81;64.05;101614.81;5033335;28;47678;-68
2023/05/26 00:44:43;;;;;;;;;21.50;21.50;;;;;14.77;63.87;101617.63;5035041;28;45293;-69
2023/05/26 00:47:09;;;;;;;;;19.75;19.75;;;;;14.74;64.35;101602.75;5035134;28;45228;-69
2023/05/26 00:49:34;;;;;;;;;19.75;19.75;;;;;14.70;64.50;101602.00;5035327;28;45703;-70
2023/05/26 00:52:00;;;;;;;;;16.75;16.75;;;;;14.54;65.10;101580.56;5034032;28;46549;-67
2023/05/26 00:54:26;;;;;;;;;16.25;16.25;;;;;14.59;65.98;101598.88;5035027;28;45544;-69
2023/05/26 00:56:54;;;;;;;;;19.00;19.00;;;;;14.57;65.65;101600.75;5034938;28;45447;-69
2023/05/26 00:59:20;;;;;;;;;13.75;13.75;;;;;14.50;65.74;101599.28;5035790;28;45501;-70
2023/05/26 01:01:45;;;;;;;;;19.25;19.25;;;;;14.47;66.39;101608.22;5034514;28;45365;-66
2023/05/26 01:04:12;;;;;;;;;20.25;20.25;;;;;14.39;66.79;101600.56;5034766;28;45212;-67
2023/05/26 01:06:38;;;;;;;;;17.25;17.25;;;;;14.32;67.56;101592.03;5034927;28;45380;-66
2023/05/26 01:09:03;;;;;;;;;20.75;20.75;;;;;14.31;67.11;101592.06;5034951;28;45666;-68
2023/05/26 01:11:40;;;;;;;;;22.75;22.75;;;;;14.30;67.09;101598.28;5034438;28;46238;-69
2023/05/26 01:14:14;;;;;;;;;21.50;21.50;;;;;14.23;68.06;101586.22;5034673;28;45650;-69
2023/05/26 01:16:46;;;;;;;;;19.00;19.00;;;;;14.21;67.95;101588.91;5034541;28;45856;-69
2023/05/26 01:19:34;;;;;;;;;22.75;21.25;;;;;14.15;67.93;101590.03;5034831;28;45377;-69
2023/05/26 01:22:17;;;;;;;;;24.00;23.50;;;;;14.08;68.83;101598.25;5034411;28;46272;-68
2023/05/26 01:25:21;;;;;;;;;22.25;22.00;;;;;14.05;69.22;101596.59;5034108;28;45170;-70
2023/05/26 01:27:46;;;;;;;;;22.50;22.25;;;;;14.03;69.37;101604.59;5034545;28;45394;-69
2023/05/26 01:30:13;;;;;;;;;19.50;19.50;;;;;14.01;69.41;101603.78;5034845;28;45545;-70
2023/05/26 01:32:45;;;;;;;;;19.50;19.50;;;;;14.00;69.63;101601.22;5032860;28;47777;-67
2023/05/26 01:35:11;;;;;;;;;23.50;22.00;;;;;14.00;70.39;101606.50;5032972;28;46139;-69
2023/05/26 01:37:36;;;;;;;;;18.75;18.75;;;;;13.97;69.73;101603.97;5034377;28;45251;-68
2023/05/26 01:40:03;;;;;;;;;12.00;10.50;;;;;13.87;69.90;101598.16;5034670;28;45545;-65
2023/05/26 01:42:33;;;;;;;;;22.25;22.25;;;;;13.86;70.74;101599.97;5034138;28;47524;-68
2023/05/26 01:45:26;;;;;;;;;20.50;20.50;;;;;13.76;71.14;101597.69;5034351;28;45328;-66
2023/05/26 01:47:59;;;;;;;;;22.00;21.25;;;;;13.74;72.08;101610.97;5030021;28;45469;-69
2023/05/26 01:50:33;;;;;;;;;19.50;19.50;;;;;13.66;71.61;101613.91;5034882;28;45464;-66
2023/05/26 01:53:07;;;;;;;;;20.50;20.50;;;;;13.65;72.20;101603.38;5034196;28;46707;-67
2023/05/26 01:55:34;;;;;;;;;23.25;23.25;;;;;13.63;72.45;101611.38;5034271;28;45406;-68
2023/05/26 01:58:01;;;;;;;;;22.50;22.50;;;;;13.66;72.11;101621.84;5034131;28;45419;-67
2023/05/26 02:00:27;;;;;;;;;25.25;25.25;;;;;13.65;72.76;101624.53;5033009;28;45452;-66
2023/05/26 02:02:52;;;;;;;;;19.75;19.75;;;;;13.46;72.22;101590.84;5032866;28;46142;-68
2023/05/26 02:05:18;;;;;;;;;24.00;24.00;;;;;13.51;73.19;101610.03;5034227;28;45315;-68
2023/05/26 02:07:45;;;;;;;;;22.50;22.25;;;;;13.47;74.00;101612.84;5034357;28;45636;-65
2023/05/26 02:10:11;;;;;;;;;26.50;24.75;;;;;13.39;74.04;101605.16;5034230;28;45301;-65
2023/05/26 02:12:36;;;;;;;;;23.25;23.25;;;;;13.35;74.81;101617.63;5034392;28;45383;-66
2023/05/26 02:15:02;;;;;;;;;22.50;22.50;;;;;13.32;75.09;101615.09;5036208;28;45511;-66
2023/05/26 02:17:27;;;;;;;;;24.00;24.00;;;;;13.24;74.89;101618.00;5037838;28;45336;-68
2023/05/26 02:19:52;;;;;;;;;23.00;23.00;;;;;13.27;74.94;101617.03;5037741;28;45630;-67
2023/05/26 02:22:18;;;;;;;;;26.25;25.75;;;;;13.26;75.56;101610.03;5037276;28;46462;-67
2023/05/26 02:24:43;;;;;;;;;21.50;21.50;;;;;13.15;75.69;101598.03;5037153;28;45426;-67
2023/05/26 02:27:08;;;;;;;;;26.50;25.50;;;;;13.23;75.19;101612.75;5037554;28;45359;-67
2023/05/26 02:29:34;;;;;;;;;28.00;25.25;;;;;13.20;75.86;101615.50;5037408;28;45266;-66
2023/05/26 02:31:59;;;;;;;;;26.00;26.00;;;;;13.22;75.47;101616.31;5037068;28;45337;-66
2023/05/26 02:34:24;;;;;;;;;27.75;26.50;;;;;13.13;76.17;101609.56;5037362;28;45324;-66
2023/05/26 02:36:50;;;;;;;;;26.75;25.50;;;;;13.13;77.16;101614.88;5037193;28;45743;-68
2023/05/26 02:39:16;;;;;;;;;25.50;24.25;;;;;13.08;77.07;101611.53;5037455;28;45231;-65
2023/05/26 02:41:41;;;;;;;;;20.00;20.00;;;;;13.04;76.84;101615.19;5036907;28;46279;-65
2023/05/26 02:44:06;;;;;;;;;17.00;16.25;;;;;12.94;76.80;101604.06;5036835;28;45358;-66
2023/05/26 02:46:32;;;;;;;;;21.75;21.75;;;;;12.93;78.01;101603.19;5037053;28;45337;-67
2023/05/26 02:49:00;;;;;;;;;26.75;24.50;;;;;12.80;77.47;101586.06;5037341;28;45537;-64
2023/05/26 02:51:25;;;;;;;;;22.00;22.00;;;;;12.86;78.04;101601.69;5036848;28;46192;-68
2023/05/26 02:53:51;;;;;;;;;20.25;17.50;;;;;12.85;77.94;101602.59;5036544;28;45323;-66
2023/05/26 02:56:16;;;;;;;;;20.00;20.00;;;;;12.83;78.10;101600.00;5036981;28;45341;-68
2023/05/26 02:58:41;;;;;;;;;24.50;22.00;;;;;12.79;78.83;101606.28;5036976;28;45562;-67
2023/05/26 03:01:07;;;;;;;;;22.00;21.00;;;;;12.80;78.76;101609.81;5035758;28;61122;-68
2023/05/26 03:03:34;;;;;;;;;19.50;19.50;;;;;12.79;78.49;101608.94;5036723;28;45313;-68
2023/05/26 03:05:59;;;;;;;;;19.75;18.00;;;;;12.79;78.73;101605.44;5036948;28;45449;-66
2023/05/26 03:08:24;;;;;;;;;23.00;23.00;;;;;12.77;78.92;101607.28;5036982;28;45506;-64
2023/05/26 03:10:50;;;;;;;;;20.75;19.50;;;;;12.75;79.51;101598.53;5036415;28;50964;-66
2023/05/26 03:13:15;;;;;;;;;18.25;18.25;;;;;12.70;78.97;101606.59;5036354;28;45367;-68
2023/05/26 03:15:42;;;;;;;;;21.00;21.00;;;;;12.61;79.85;101589.28;5036268;28;50247;-65
2023/05/26 03:18:07;;;;;;;;;18.00;18.00;;;;;12.59;80.27;101598.16;5036785;28;45437;-66
2023/05/26 03:20:32;;;;;;;;;21.75;21.25;;;;;12.56;80.91;101600.00;5036055;28;52688;-67
2023/05/26 03:22:58;;;;;;;;;10.50;10.50;;;;;12.55;80.46;101605.31;5036369;28;55233;-65
2023/05/26 03:25:23;;;;;;;;;15.50;15.50;;;;;12.50;80.92;101599.31;5034932;28;45330;-68
2023/05/26 03:27:48;;;;;;;;;19.75;18.50;;;;;12.47;80.42;101602.03;5036600;28;45437;-69
2023/05/26 03:30:14;;;;;;;;;17.00;17.00;;;;;12.46;79.86;101593.28;5034656;28;47178;-70
2023/05/26 03:32:39;;;;;;;;;18.50;17.50;;;;;12.41;80.38;101585.50;5036131;28;45336;-68
2023/05/26 03:35:05;;;;;;;;;21.00;21.00;;;;;12.46;81.34;101597.69;5036304;28;45282;-69
2023/05/26 03:37:30;;;;;;;;;19.50;19.00;;;;;12.43;81.47;101601.28;5035429;28;45730;-65
2023/05/26 03:39:56;;;;;;;;;21.00;20.75;;;;;12.33;81.40;101579.59;5036019;28;47741;-68
2023/05/26 03:42:22;;;;;;;;;17.25;15.50;;;;;12.37;81.57;101591.78;5036144;28;45284;-67
2023/05/26 03:44:47;;;;;;;;;17.25;17.25;;;;;12.39;82.00;101597.03;5034846;28;45249;-65
2023/05/26 03:47:12;;;;;;;;;20.00;19.00;;;;;12.33;82.40;101587.53;5035025;28;45406;-66
2023/05/26 03:49:37;;;;;;;;;13.75;13.75;;;;;12.25;82.25;101587.78;5035997;28;46564;-66
2023/05/26 03:52:03;;;;;;;;;18.75;18.75;;;;;12.27;82.14;101583.31;5035551;28;63695;-66
2023/05/26 03:54:28;;;;;;;;;19.50;18.25;;;;;12.26;83.22;101586.88;5036104;28;45395;-68
2023/05/26 03:56:55;;;;;;;;;19.75;19.75;;;;;12.17;83.10;101573.94;5036160;28;45212;-68
2023/05/26 03:59:20;;;;;;;;;17.00;17.00;;;;;12.19;82.85;101587.09;5035976;28;45666;-68
2023/05/26 04:01:46;;;;;;;;;17.00;15.50;;;;;12.16;83.58;101584.53;5035628;28;45529;-69
2023/05/26 04:04:11;;;;;;;;;16.50;16.50;;;;;12.16;83.50;101579.28;5035937;28;45382;-70
2023/05/26 04:06:37;;;;;;;;;15.00;14.75;;;;;12.13;83.13;101580.22;5036042;28;45358;-70
2023/05/26 04:09:04;;;;;;;;;18.50;18.00;;;;;12.12;83.24;101587.28;5035959;28;46359;-69
2023/05/26 04:11:29;;;;;;;;;22.25;20.00;;;;;12.10;83.28;101590.84;5035843;28;45331;-70
2023/05/26 04:13:55;;;;;;;;;17.75;17.75;;;;;12.08;84.19;101585.66;5035847;28;45371;-67
2023/05/26 04:16:20;;;;;;;;;18.00;18.00;;;;;11.99;84.41;101577.97;5036059;28;45265;-70
2023/05/26 04:18:46;;;;;;;;;18.25;17.50;;;;;12.03;84.35;101590.19;5035438;28;46502;-71
2023/05/26 04:21:11;;;;;;;;;18.50;18.50;;;;;12.01;83.72;101581.47;5035455;28;45263;-69
2023/05/26 04:23:37;;;;;;;;;14.00;13.75;;;;;12.03;83.54;101587.56;5035791;28;45301;-68
2023/05/26 04:26:03;;;;;;;;;16.50;16.50;;;;;12.08;83.97;101596.19;5036125;28;45616;-69
2023/05/26 04:28:29;;;;;;;;;13.00;13.00;;;;;12.09;83.83;101595.28;5035076;28;46783;-69
2023/05/26 04:30:55;;;;;;;;;21.00;19.50;;;;;12.08;83.97;101593.56;5035251;28;45190;-68
2023/05/26 04:33:20;;;;;;;;;19.00;18.25;;;;;12.07;83.37;101589.19;5033767;28;45408;-68
2023/05/26 04:35:46;;;;;;;;;21.00;21.00;;;;;12.05;83.33;101590.13;5034900;28;45255;-70
2023/05/26 04:38:12;;;;;;;;;21.00;20.00;;;;;12.11;83.17;101603.13;5034835;28;46366;-70
2023/05/26 04:40:38;;;;;;;;;20.50;20.50;;;;;12.08;83.65;101593.56;5034736;28;45375;-67
2023/05/26 04:43:04;;;;;;;;;18.00;18.00;;;;;12.12;83.19;101597.84;5035035;28;45329;-69
2023/05/26 04:45:30;;;;;;;;;25.00;24.75;;;;;12.14;83.08;101603.03;5035052;28;45653;-69
2023/05/26 04:47:56;;;;;;;;;18.50;18.50;;;;;12.13;83.15;101603.94;5049928;28;48580;-69
2023/05/26 04:50:23;;;;;;;;;21.50;20.50;;;;;12.19;83.47;101609.03;5034483;28;45321;-71
2023/05/26 04:52:49;;;;;;;;;17.00;17.00;;;;;12.17;83.47;101613.50;5034899;28;45208;-69
2023/05/26 04:55:14;;;;;;;;;14.00;13.50;;;;;12.18;82.96;101617.00;5034832;28;45515;-69
2023/05/26 04:57:40;;;;;;;;;17.25;17.25;;;;;12.18;83.46;101623.13;5034549;28;45531;-67
2023/05/26 05:00:06;;;;;;;;;19.00;19.00;;;;;12.19;83.11;101619.59;5034519;28;45325;-67
2023/05/26 05:02:31;;;;;;;;;19.50;19.50;;;;;12.19;83.50;101621.38;5035237;28;45374;-69
2023/05/26 05:04:56;;;;;;;;;20.25;19.50;;;;;12.26;82.92;101628.19;5035107;28;45541;-69
2023/05/26 05:07:22;;;;;;;;;16.50;16.50;;;;;12.28;82.80;101607.91;5033084;28;47969;-69
2023/05/26 05:09:47;;;;;;;;;17.75;17.00;;;;;12.44;82.66;101620.63;5032804;28;56982;-68
2023/05/26 05:12:12;;;;;;;;;20.75;20.50;;;;;12.54;81.05;101622.06;5034383;28;54771;-67
2023/05/26 05:14:38;;;;;;;;;18.50;17.50;;;;;12.62;80.81;101625.31;5034996;28;47908;-69
2023/05/26 05:17:03;;;;;;;;;19.50;19.50;;;;;12.74;80.64;101617.94;5034799;28;45636;-69
2023/05/26 05:19:28;;;;;;;;;21.25;18.25;;;;;12.86;79.98;101628.94;5034421;28;45367;-66
2023/05/26 05:21:54;;;;;;;;;16.25;16.00;;;;;12.94;79.61;101639.25;5034390;28;45398;-68
2023/05/26 05:24:20;;;;;;;;;21.50;18.25;;;;;13.02;79.14;101638.13;5034844;28;45370;-68
2023/05/26 05:26:45;;;;;;;;;17.50;17.50;;;;;13.06;78.65;101632.69;5032636;28;47118;-69
2023/05/26 05:29:10;;;;;;;;;15.25;15.25;;;;;13.21;78.18;101641.00;5033937;28;48672;-68
2023/05/26 05:31:35;;;;;;;;;17.25;17.00;;;;;13.29;77.71;101644.28;5033266;28;45301;-68
2023/05/26 05:34:01;;;;;;;;;14.00;14.00;;;;;13.37;77.00;101636.94;5034742;28;45522;-70
2023/05/26 05:36:26;;;;;;;;;18.75;17.00;;;;;13.47;76.34;101644.56;5034361;28;46218;-69
2023/05/26 05:38:52;;;;;;;;;17.25;17.25;;;;;13.52;76.03;101648.75;5034470;28;45339;-67
2023/05/26 05:41:18;;;;;;;;;15.75;15.75;;;;;13.55;75.82;101653.09;5033256;28;45373;-69
2023/05/26 05:43:44;;;;;;;;;15.75;15.00;;;;;13.53;75.33;101655.78;5033124;28;45532;-71
2023/05/26 05:46:09;;;;;;;;;13.00;13.00;;;;;13.55;75.43;101659.22;5034478;28;46231;-70
2023/05/26 05:48:34;;;;;;;;;19.00;17.75;;;;;13.63;75.11;101660.72;5035845;28;45340;-71
2023/05/26 05:51:00;;;;;;;;;17.50;16.25;;;;;13.61;75.18;101652.88;5038060;28;45469;-68
2023/05/26 05:53:25;;;;;;;;;17.25;16.50;;;;;13.55;74.65;101664.50;5037774;28;45279;-67
2023/05/26 05:55:51;;;;;;;;;16.00;15.25;;;;;13.51;75.13;101657.59;5036030;28;48012;-69
2023/05/26 05:58:16;;;;;;;;;16.75;16.00;;;;;13.49;75.00;101654.16;5037562;28;45308;-70
2023/05/26 06:00:41;;;;;;;;;17.75;17.50;;;;;13.48;74.88;101662.16;5037434;28;50457;-67
2023/05/26 06:03:07;;;;;;;;;22.00;18.50;;;;;13.48;74.83;101668.28;5038191;28;45356;-67
2023/05/26 06:05:32;;;;;;;;;16.00;16.00;;;;;13.48;75.31;101668.28;5036112;28;47086;-67
2023/05/26 06:07:57;;;;;;;;;20.00;19.00;;;;;13.47;75.15;101676.28;5037791;28;45305;-67
2023/05/26 06:10:23;;;;;;;;;18.75;17.50;;;;;13.39;75.16;101672.09;5037672;28;45356;-68
2023/05/26 06:12:48;;;;;;;;;19.25;19.00;;;;;13.38;75.67;101680.94;5037581;28;45252;-67
2023/05/26 06:15:13;;;;;;;;;17.50;17.25;;;;;13.35;75.48;101678.41;5037424;28;45983;-66
2023/05/26 06:17:39;;;;;;;;;19.50;19.50;;;;;13.35;75.57;101680.19;5036165;28;45750;-68
2023/05/26 06:20:05;;;;;;;;;17.50;16.75;;;;;13.33;75.69;101674.97;5037611;28;45395;-71
2023/05/26 06:22:30;;;;;;;;;20.75;19.75;;;;;13.38;75.76;101674.78;5037362;28;45459;-69
2023/05/26 06:24:55;;;;;;;;;16.00;15.75;;;;;13.38;75.48;101677.44;5037252;28;45647;-69
2023/05/26 06:27:21;;;;;;;;;22.00;20.00;;;;;13.42;75.86;101679.97;5037259;28;45344;-70
2023/05/26 06:29:46;;;;;;;;;19.25;19.00;;;;;13.40;75.61;101676.47;5037115;28;45376;-71
2023/05/26 06:32:11;;;;;;;;;20.00;20.00;;;;;13.42;75.50;101669.38;5036213;28;45517;-71
2023/05/26 06:34:37;;;;;;;;;18.75;18.50;;;;;13.47;75.39;101682.41;5035471;28;46963;-71
2023/05/26 06:37:02;;;;;;;;;20.25;20.00;;;;;13.47;75.59;101681.56;5052357;28;45233;-74
2023/05/26 06:39:27;;;;;;;;;19.50;17.50;;;;;13.46;75.50;101675.41;5035151;28;45263;-68
2023/05/26 06:41:53;;;;;;;;;22.00;20.50;;;;;13.46;75.44;101674.56;5030279;28;48585;-67
2023/05/26 06:44:18;;;;;;;;;20.25;20.25;;;;;13.52;75.36;101680.47;5035897;28;45443;-70
2023/05/26 06:46:44;;;;;;;;;20.00;20.00;;;;;13.57;75.18;101683.81;5033818;28;45467;-68
2023/05/26 06:49:09;;;;;;;;;17.00;17.00;;;;;13.59;74.98;101668.78;5031283;28;45870;-69
2023/05/26 06:51:35;;;;;;;;;23.50;23.00;;;;;13.69;75.21;101676.38;5027949;28;46734;-72
2023/05/26 06:54:01;;;;;;;;;17.50;17.50;;;;;13.70;74.49;101665.75;5027503;28;45576;-68
2023/05/26 06:56:26;;;;;;;;;23.00;23.00;;;;;13.78;74.34;101677.84;5016273;28;45442;-77
2023/05/26 06:58:52;;;;;;;;;18.75;16.25;;;;;13.76;73.90;101667.31;5032459;28;45551;-76
2023/05/26 07:01:18;;;;;;;;;20.25;19.25;;;;;13.82;73.72;101675.03;5035184;28;45680;-74
2023/05/26 07:03:43;;;;;;;;;19.50;19.50;;;;;13.86;73.60;101671.38;5036203;28;46090;-72
2023/05/26 07:06:08;;;;;;;;;22.00;22.00;;;;;13.88;73.58;101669.53;5034212;28;45466;-73
2023/05/26 07:08:34;;;;;;;;;16.75;16.75;;;;;13.99;73.56;101676.19;5034528;28;45577;-73
2023/05/26 07:10:59;;;;;;;;;23.00;22.00;;;;;14.06;73.43;101684.75;5034264;28;46928;-77
2023/05/26 07:13:25;;;;;;;;;20.00;20.00;;;;;14.11;72.83;101678.38;5033026;28;46233;-73
2023/05/26 07:15:50;;;;;;;;;20.25;20.25;;;;;14.19;73.02;101683.38;5033695;28;45411;-79
2023/05/26 07:18:15;;;;;;;;;19.50;18.50;;;;;14.26;72.31;101670.78;5033857;28;45572;-70
2023/05/26 07:20:40;;;;;;;;;19.25;19.25;;;;;14.37;72.04;101673.88;5035891;28;45629;-78
2023/05/26 07:23:06;;;;;;;;;20.50;20.50;;;;;14.45;71.59;101674.44;5032908;28;46820;-70
2023/05/26 07:25:31;;;;;;;;;24.25;23.00;;;;;14.45;71.41;101666.50;5035497;28;45447;-72
2023/05/26 07:27:57;;;;;;;;;25.75;25.75;;;;;14.57;71.08;101669.56;5035799;28;45550;-72
2023/05/26 07:30:22;;;;;;;;;25.75;24.25;;;;;14.56;70.61;101662.56;5034491;28;45546;-75
2023/05/26 07:32:47;;;;;;;;;21.75;21.50;;;;;14.69;70.28;101676.19;5034021;28;46655;-72
2023/05/26 07:35:13;;;;;;;;;19.50;19.50;;;;;14.73;70.26;101668.06;5034435;28;45349;-73
2023/05/26 07:37:38;;;;;;;;;21.25;21.25;;;;;14.75;69.86;101676.81;5035052;28;45491;-76
2023/05/26 07:40:04;;;;;;;;;18.50;18.50;;;;;14.88;69.94;101673.69;5036524;28;45478;-76
2023/05/26 07:42:31;;;;;;;;;20.50;20.50;;;;;15.00;69.68;101677.63;5034971;28;45763;-77
2023/05/26 07:44:56;;;;;;;;;20.25;20.00;;;;;15.08;69.12;101666.72;5034774;28;45393;-76
2023/05/26 07:47:23;;;;;;;;;22.25;21.75;;;;;15.17;68.99;101664.50;5033496;28;45396;-75
2023/05/26 07:49:48;;;;;;;;;21.50;21.50;;;;;15.30;68.61;101680.78;5035077;28;45490;-69
2023/05/26 07:52:14;;;;;;;;;20.75;20.75;;;;;15.39;67.82;101679.53;5034793;28;46025;-82
2023/05/26 07:54:40;;;;;;;;;21.75;21.75;;;;;15.46;67.67;101681.00;5034748;28;45416;-76
2023/05/26 07:57:05;;;;;;;;;22.50;20.25;;;;;15.54;67.68;101682.44;5035512;28;45419;-77
2023/05/26 07:59:31;;;;;;;;;23.75;23.25;;;;;15.61;67.06;101682.09;5035551;28;45474;-77
2023/05/26 08:01:56;;;;;;;;;22.25;21.75;;;;;15.69;66.66;101680.88;5035378;28;46532;-76
2023/05/26 08:04:21;;;;;;;;;24.50;24.50;;;;;15.75;66.80;101670.00;5037368;28;45415;-78
2023/05/26 08:06:47;;;;;;;;;31.50;27.75;;;;;15.91;66.83;101681.72;5034488;28;45466;-77
2023/05/26 08:09:12;;;;;;;;;22.00;22.00;;;;;15.97;65.83;101679.72;5037403;28;45188;-76
2023/05/26 08:11:37;;;;;;;;;24.00;23.75;;;;;16.04;65.47;101679.34;5035511;28;46592;-78
2023/05/26 08:14:03;;;;;;;;;25.00;23.50;;;;;16.08;65.34;101679.19;5035681;28;45391;-76
2023/05/26 08:16:28;;;;;;;;;26.25;24.50;;;;;16.14;65.20;101678.91;5035954;28;45381;-76
2023/05/26 08:18:53;;;;;;;;;19.75;18.25;;;;;16.16;64.72;101663.78;5034265;28;45379;-77
2023/05/26 08:21:19;;;;;;;;;22.50;22.50;;;;;16.20;64.77;101674.19;5034203;28;47497;-79
2023/05/26 08:23:44;;;;;;;;;19.00;19.00;;;;;16.34;64.75;101680.66;5036420;28;45258;-74
2023/05/26 08:26:09;;;;;;;;;23.50;23.50;;;;;16.36;64.14;101676.97;5037707;28;45178;-75
2023/05/26 08:28:35;;;;;;;;;22.50;22.00;;;;;16.49;63.98;101682.59;5038010;28;45534;-75
2023/05/26 08:31:00;;;;;;;;;22.75;22.75;;;;;16.55;64.01;101672.59;5034271;28;48188;-77
2023/05/26 08:33:26;;;;;;;;;20.00;19.25;;;;;16.67;63.42;101682.63;5035755;28;45454;-78
2023/05/26 08:35:51;;;;;;;;;16.00;16.00;;;;;16.70;63.01;101679.81;5035801;28;45422;-76
2023/05/26 08:38:17;;;;;;;;;21.00;21.00;;;;;16.73;62.92;101674.34;5036866;28;45412;-78
2023/05/26 08:40:42;;;;;;;;;24.00;24.00;;;;;16.79;62.80;101667.91;5035959;28;45434;-77
2023/05/26 08:43:12;;;;;;;;;22.75;22.75;;;;;16.89;62.26;101676.25;5035593;28;45392;-74
2023/05/26 08:45:37;;;;;;;;;22.25;22.25;;;;;16.96;61.55;101674.16;5035556;28;45302;-78
2023/05/26 08:48:07;;;;;;;;;19.50;19.50;;;;;17.04;60.53;101672.91;5035970;28;45281;-78
2023/05/26 08:50:32;;;;;;;;;19.75;19.75;;;;;16.98;61.17;101651.94;5035775;28;45719;-77
2023/05/26 08:53:00;;;;;;;;;18.75;18.75;;;;;17.14;61.18;101681.25;5034323;28;45368;-80
2023/05/26 08:55:27;;;;;;;;;19.75;19.75;;;;;17.23;61.50;101678.13;5034690;28;45358;-79
2023/05/26 08:57:53;;;;;;;;;20.00;19.75;;;;;17.34;60.65;101674.06;5036010;28;45563;-71
2023/05/26 09:00:19;;;;;;;;;18.25;18.25;;;;;17.37;59.64;101672.13;5035505;28;45515;-78
2023/05/26 09:02:45;;;;;;;;;21.00;21.00;;;;;17.30;59.92;101649.44;5034758;28;45429;-78
2023/05/26 09:05:10;;;;;;;;;21.50;21.50;;;;;17.47;60.08;101668.97;5037390;28;45348;-73
2023/05/26 09:07:36;;;;;;;;;40.25;34.00;;;;;17.56;60.08;101667.66;5038085;28;45544;-77
2023/05/26 09:10:22;;;;;;;;;21.25;21.25;;;;;17.63;59.75;101667.22;5036233;28;49452;-74
2023/05/26 09:12:48;;;;;;;;;20.75;20.75;;;;;17.69;59.78;101668.72;5050491;28;45375;-71
2023/05/26 09:15:19;;;;;;;;;23.00;23.00;;;;;17.73;59.30;101672.06;5035363;28;45425;-74
2023/05/26 09:17:45;;;;;;;;;24.00;24.00;;;;;17.78;58.97;101667.34;5035838;28;45301;-75
2023/05/26 09:20:11;;;;;;;;;24.75;22.00;;;;;17.74;59.22;101655.16;5035134;28;45446;-77
2023/05/26 09:22:37;;;;;;;;;18.50;18.00;;;;;17.99;59.31;101675.13;5035150;28;45335;-73
2023/05/26 09:25:03;;;;;;;;;13.50;13.50;;;;;18.07;58.50;101675.63;5035953;28;45248;-72
2023/05/26 09:27:29;;;;;;;;;17.00;17.00;;;;;18.14;58.63;101679.66;5036749;28;45470;-71
2023/05/26 09:29:57;;;;;;;;;21.50;21.50;;;;;18.23;58.32;101694.25;5035446;28;45463;-71
2023/05/26 09:32:29;;;;;;;;;22.75;22.75;;;;;18.32;57.82;101677.78;5034696;28;45189;-74
2023/05/26 09:35:04;;;;;;;;;22.00;22.00;;;;;18.37;57.80;101675.72;5033118;28;45455;-75
2023/05/26 09:37:31;;;;;;;;;24.75;24.25;;;;;18.45;57.96;101677.97;5034976;28;45473;-76
2023/05/26 09:40:25;;;;;;;;;18.00;17.75;;;;;18.57;57.24;101683.53;5034605;28;45278;-78
2023/05/26 09:42:53;;;;;;;;;22.50;22.50;;;;;18.58;57.20;101679.94;5021609;28;45511;-76
2023/05/26 09:45:19;;;;;;;;;17.25;17.25;;;;;18.61;57.06;101682.41;5033117;28;45296;-75
2023/05/26 09:47:44;;;;;;;;;20.25;19.75;;;;;18.65;56.59;101678.63;5035194;28;45539;-73
2023/05/26 09:50:10;;;;;;;;;21.00;21.00;;;;;18.71;56.67;101675.63;5035295;28;45438;-76
2023/05/26 09:52:36;;;;;;;;;19.50;18.50;;;;;18.81;56.67;101683.94;5034416;28;45395;-75
2023/05/26 09:55:02;;;;;;;;;21.75;20.00;;;;;18.83;55.61;101685.56;5034272;28;45520;-74
2023/05/26 09:57:32;;;;;;;;;15.50;15.00;;;;;18.86;55.33;101670.34;5034626;28;45266;-79
2023/05/26 10:00:00;;;;;;;;;24.75;24.75;;;;;18.91;55.82;101668.28;5034269;28;45897;-76
2023/05/26 10:02:26;;;;;;;;;22.50;22.50;;;;;18.95;56.02;101667.13;5035523;28;45301;-68
2023/05/26 10:04:53;;;;;;;;;22.25;20.25;;;;;19.00;55.70;101664.25;5034947;28;45486;-79
2023/05/26 10:07:20;;;;;;;;;22.50;20.75;;;;;19.00;55.36;101657.09;5034477;28;45467;-79
2023/05/26 10:09:52;;;;;;;;;18.25;18.25;;;;;18.98;55.32;101662.53;5032616;28;47605;-79
2023/05/26 10:12:22;;;;;;;;;17.50;17.25;;;;;19.12;55.68;101677.72;5034307;28;45477;-77
2023/05/26 10:14:49;;;;;;;;;22.75;22.75;;;;;19.19;54.94;101672.03;5033974;28;45231;-75
2023/05/26 10:17:14;;;;;;;;;22.50;22.50;;;;;19.23;55.19;101668.22;5034043;28;45218;-77
2023/05/26 10:19:40;;;;;;;;;22.50;21.00;;;;;19.32;54.92;101675.69;5034295;28;46508;-75
2023/05/26 10:22:12;;;;;;;;;22.00;22.00;;;;;19.39;54.02;101673.50;5034523;28;45329;-79
2023/05/26 10:24:53;;;;;;;;;22.25;22.25;;;;;19.40;54.72;101676.06;5033009;28;45364;-78
2023/05/26 10:27:33;;;;;;;;;21.50;21.00;;;;;19.46;54.46;101672.16;5034538;28;45424;-76
2023/05/26 10:30:10;;;;;;;;;22.75;22.75;;;;;19.52;54.83;101662.94;5033878;28;45523;-70
2023/05/26 10:32:44;;;;;;;;;24.50;24.50;;;;;19.61;54.57;101672.19;5032515;28;45250;-71
2023/05/26 10:35:32;;;;;;;;;18.75;18.75;;;;;19.70;54.13;101666.31;5037046;28;45332;-72
2023/05/26 10:38:03;;;;;;;;;21.25;20.25;;;;;19.76;53.97;101667.72;5053718;28;45470;-74
2023/05/26 10:40:50;;;;;;;;;22.75;22.75;;;;;19.79;54.23;101662.19;5037444;28;45565;-72
2023/05/26 10:43:23;;;;;;;;;16.75;16.50;;;;;19.84;54.19;101662.75;5037090;28;45286;-71
2023/05/26 10:45:58;;;;;;;;;25.00;25.00;;;;;19.87;53.71;101656.38;5035779;28;45313;-75
2023/05/26 10:48:35;;;;;;;;;16.50;16.50;;;;;19.96;53.59;101669.19;5037269;28;45198;-73
2023/05/26 10:51:15;;;;;;;;;18.50;18.50;;;;;20.00;53.27;101652.03;5036654;28;45250;-77
2023/05/26 10:53:45;;;;;;;;;21.75;21.75;;;;;20.06;53.15;101659.63;5036947;28;45292;-75
2023/05/26 10:56:13;;;;;;;;;17.75;17.75;;;;;20.12;53.16;101647.69;5036849;28;45379;-76
2023/05/26 10:58:38;;;;;;;;;19.50;19.50;;;;;20.19;53.10;101651.72;5036958;28;45626;-72
2023/05/26 11:01:08;;;;;;;;;22.75;22.75;;;;;20.25;52.99;101640.63;5036458;28;46145;-70
2023/05/26 11:03:44;;;;;;;;;19.50;19.50;;;;;20.25;52.93;101642.44;5036585;28;45319;-73
2023/05/26 11:06:12;;;;;;;;;17.00;16.50;;;;;20.22;53.12;101632.81;5036898;28;45173;-77
2023/05/26 11:08:39;;;;;;;;;19.00;19.00;;;;;20.35;52.73;101640.88;5037501;28;45376;-73